sensor_id;sensor_type;location;lat;lon;timestamp;P1;durP1;ratioP1;P2;durP2;ratioP2
10052;SDS011;52418;53.134;8.236;2023-02-28T00:01:27;1.10;;;1.10;;
10052;SDS011;52418;53.134;8.236;2023-02-28T00:03:52;1.00;;;1.00;;
10052;SDS011;52418;53.134;8.236;2023-02-28T00:06:17;1.10;;;1.10;;
10052;SDS011;52418;53.134;8.236;2023-02-28T00:08:42;1.10;;;1.10;;
10052;SDS011;52418;53.134;8.236;2023-02-28T00:11:08;1.13;;;1.13;;
10052;SDS011;52418;53.134;8.236;2023-02-28T00:13:34;1.20;;;1.20;;
10052;SDS011;52418;53.134;8.236;2023-02-28T00:16:04;1.03;;;1.03;;
10052;SDS011;52418;53.134;8.236;2023-02-28T00:18:29;1.10;;;1.10;;
10052;SDS011;52418;53.134;8.236;2023-02-28T00:20:55;1.10;;;1.10;;
10052;SDS011;52418;53.134;8.236;2023-02-28T00:23:20;1.10;;;1.10;;
10052;SDS011;52418;53.134;8.236;2023-02-28T00:25:45;1.03;;;1.03;;
10052;SDS011;52418;53.134;8.236;2023-02-28T00:28:10;0.90;;;0.90;;
10052;SDS011;52418;53.134;8.236;2023-02-28T00:30:35;1.10;;;1.10;;
10052;SDS011;52418;53.134;8.236;2023-02-28T00:33:01;1.00;;;1.00;;
10052;SDS011;52418;53.134;8.236;2023-02-28T00:35:26;1.00;;;1.00;;
10052;SDS011;52418;53.134;8.236;2023-02-28T00:37:51;0.90;;;0.90;;
10052;SDS011;52418;53.134;8.236;2023-02-28T00:40:16;1.00;;;1.00;;
10052;SDS011;52418;53.134;8.236;2023-02-28T00:42:41;1.07;;;1.07;;
10052;SDS011;52418;53.134;8.236;2023-02-28T00:45:07;1.10;;;1.10;;
10052;SDS011;52418;53.134;8.236;2023-02-28T00:47:33;1.10;;;1.10;;
10052;SDS011;52418;53.134;8.236;2023-02-28T00:49:58;1.00;;;1.00;;
10052;SDS011;52418;53.134;8.236;2023-02-28T00:52:23;0.90;;;0.90;;
10052;SDS011;52418;53.134;8.236;2023-02-28T00:54:49;1.00;;;1.00;;
10052;SDS011;52418;53.134;8.236;2023-02-28T00:57:14;0.90;;;0.90;;
10052;SDS011;52418;53.134;8.236;2023-02-28T00:59:39;1.00;;;1.00;;
10052;SDS011;52418;53.134;8.236;2023-02-28T01:02:05;1.00;;;1.00;;
10052;SDS011;52418;53.134;8.236;2023-02-28T01:04:30;1.00;;;1.00;;
10052;SDS011;52418;53.134;8.236;2023-02-28T01:06:55;1.10;;;1.10;;
10052;SDS011;52418;53.134;8.236;2023-02-28T01:09:20;1.10;;;1.10;;
10052;SDS011;52418;53.134;8.236;2023-02-28T01:11:45;1.10;;;1.10;;
10052;SDS011;52418;53.134;8.236;2023-02-28T01:14:14;1.00;;;1.00;;
10052;SDS011;52418;53.134;8.236;2023-02-28T01:16:40;1.10;;;1.10;;
10052;SDS011;52418;53.134;8.236;2023-02-28T01:19:06;1.20;;;1.20;;
10052;SDS011;52418;53.134;8.236;2023-02-28T01:21:31;1.00;;;1.00;;
10052;SDS011;52418;53.134;8.236;2023-02-28T01:23:57;1.00;;;1.00;;
10052;SDS011;52418;53.134;8.236;2023-02-28T01:26:22;1.10;;;1.10;;
10052;SDS011;52418;53.134;8.236;2023-02-28T01:28:48;1.00;;;1.00;;
10052;SDS011;52418;53.134;8.236;2023-02-28T01:31:14;1.00;;;1.00;;
10052;SDS011;52418;53.134;8.236;2023-02-28T01:33:39;1.10;;;1.10;;
10052;SDS011;52418;53.134;8.236;2023-02-28T01:36:06;1.10;;;1.10;;
10052;SDS011;52418;53.134;8.236;2023-02-28T01:38:32;1.10;;;1.10;;
10052;SDS011;52418;53.134;8.236;2023-02-28T01:40:57;1.10;;;1.10;;
10052;SDS011;52418;53.134;8.236;2023-02-28T01:43:27;1.03;;;1.03;;
10052;SDS011;52418;53.134;8.236;2023-02-28T01:45:52;1.10;;;1.10;;
10052;SDS011;52418;53.134;8.236;2023-02-28T01:48:18;1.10;;;1.10;;
10052;SDS011;52418;53.134;8.236;2023-02-28T01:50:45;1.10;;;1.10;;
10052;SDS011;52418;53.134;8.236;2023-02-28T01:53:13;1.00;;;1.00;;
10052;SDS011;52418;53.134;8.236;2023-02-28T01:55:39;1.00;;;1.00;;
10052;SDS011;52418;53.134;8.236;2023-02-28T01:58:05;1.10;;;1.10;;
10052;SDS011;52418;53.134;8.236;2023-02-28T02:00:32;1.10;;;1.10;;
10052;SDS011;52418;53.134;8.236;2023-02-28T02:02:58;1.10;;;1.10;;
10052;SDS011;52418;53.134;8.236;2023-02-28T02:05:25;1.10;;;1.10;;
10052;SDS011;52418;53.134;8.236;2023-02-28T02:07:52;1.10;;;1.10;;
10052;SDS011;52418;53.134;8.236;2023-02-28T02:10:20;1.00;;;1.00;;
10052;SDS011;52418;53.134;8.236;2023-02-28T02:18:04;1.07;;;1.07;;
10052;SDS011;52418;53.134;8.236;2023-02-28T02:20:42;1.10;;;1.10;;
10052;SDS011;52418;53.134;8.236;2023-02-28T02:28:22;1.00;;;1.00;;
10052;SDS011;52418;53.134;8.236;2023-02-28T02:36:10;1.10;;;1.10;;
10052;SDS011;52418;53.134;8.236;2023-02-28T02:43:33;1.07;;;1.07;;
10052;SDS011;52418;53.134;8.236;2023-02-28T02:46:09;1.10;;;1.10;;
10052;SDS011;52418;53.134;8.236;2023-02-28T02:48:35;1.00;;;1.00;;
10052;SDS011;52418;53.134;8.236;2023-02-28T02:51:04;1.10;;;1.10;;
10052;SDS011;52418;53.134;8.236;2023-02-28T02:53:37;1.10;;;1.10;;
10052;SDS011;52418;53.134;8.236;2023-02-28T02:56:05;1.10;;;1.10;;
10052;SDS011;52418;53.134;8.236;2023-02-28T02:58:33;1.00;;;1.00;;
10052;SDS011;52418;53.134;8.236;2023-02-28T03:01:00;1.10;;;1.10;;
10052;SDS011;52418;53.134;8.236;2023-02-28T03:03:26;1.10;;;1.10;;
10052;SDS011;52418;53.134;8.236;2023-02-28T03:05:55;1.10;;;1.10;;
10052;SDS011;52418;53.134;8.236;2023-02-28T03:08:21;1.03;;;1.03;;
10052;SDS011;52418;53.134;8.236;2023-02-28T03:10:50;1.00;;;1.00;;
10052;SDS011;52418;53.134;8.236;2023-02-28T03:16:17;1.20;;;1.20;;
10052;SDS011;52418;53.134;8.236;2023-02-28T03:21:38;1.10;;;1.10;;
10052;SDS011;52418;53.134;8.236;2023-02-28T03:26:35;1.00;;;1.00;;
10052;SDS011;52418;53.134;8.236;2023-02-28T03:29:03;1.07;;;1.07;;
10052;SDS011;52418;53.134;8.236;2023-02-28T03:33:56;1.10;;;1.10;;
10052;SDS011;52418;53.134;8.236;2023-02-28T03:36:24;1.10;;;1.10;;
10052;SDS011;52418;53.134;8.236;2023-02-28T03:38:51;1.03;;;1.03;;
10052;SDS011;52418;53.134;8.236;2023-02-28T03:41:20;1.00;;;1.00;;
10052;SDS011;52418;53.134;8.236;2023-02-28T03:43:56;1.00;;;1.00;;
10052;SDS011;52418;53.134;8.236;2023-02-28T03:46:23;1.00;;;1.00;;
10052;SDS011;52418;53.134;8.236;2023-02-28T03:49:34;1.00;;;1.00;;
10052;SDS011;52418;53.134;8.236;2023-02-28T03:51:38;1.10;;;1.10;;
10052;SDS011;52418;53.134;8.236;2023-02-28T03:54:12;1.00;;;1.00;;
10052;SDS011;52418;53.134;8.236;2023-02-28T03:56:40;1.10;;;1.10;;
10052;SDS011;52418;53.134;8.236;2023-02-28T03:59:19;1.00;;;1.00;;
10052;SDS011;52418;53.134;8.236;2023-02-28T04:01:47;1.10;;;1.10;;
10052;SDS011;52418;53.134;8.236;2023-02-28T04:04:13;1.00;;;1.00;;
10052;SDS011;52418;53.134;8.236;2023-02-28T04:06:39;1.10;;;1.10;;
10052;SDS011;52418;53.134;8.236;2023-02-28T04:09:05;1.00;;;1.00;;
10052;SDS011;52418;53.134;8.236;2023-02-28T04:14:00;1.00;;;1.00;;
10052;SDS011;52418;53.134;8.236;2023-02-28T04:16:25;1.10;;;1.10;;
10052;SDS011;52418;53.134;8.236;2023-02-28T04:18:50;1.07;;;1.07;;
10052;SDS011;52418;53.134;8.236;2023-02-28T04:21:15;1.10;;;1.10;;
10052;SDS011;52418;53.134;8.236;2023-02-28T04:23:45;1.10;;;1.10;;
10052;SDS011;52418;53.134;8.236;2023-02-28T04:26:10;1.00;;;1.00;;
10052;SDS011;52418;53.134;8.236;2023-02-28T04:28:36;1.00;;;1.00;;
10052;SDS011;52418;53.134;8.236;2023-02-28T04:31:03;1.20;;;1.20;;
10052;SDS011;52418;53.134;8.236;2023-02-28T04:33:29;1.00;;;1.00;;
10052;SDS011;52418;53.134;8.236;2023-02-28T04:35:58;1.00;;;1.00;;
10052;SDS011;52418;53.134;8.236;2023-02-28T04:38:24;0.90;;;0.90;;
10052;SDS011;52418;53.134;8.236;2023-02-28T04:40:49;1.10;;;1.10;;
10052;SDS011;52418;53.134;8.236;2023-02-28T04:43:14;1.10;;;1.10;;
10052;SDS011;52418;53.134;8.236;2023-02-28T04:45:39;1.07;;;1.07;;
10052;SDS011;52418;53.134;8.236;2023-02-28T04:48:05;1.20;;;1.20;;
10052;SDS011;52418;53.134;8.236;2023-02-28T04:50:30;1.10;;;1.10;;
10052;SDS011;52418;53.134;8.236;2023-02-28T04:52:56;1.10;;;1.10;;
10052;SDS011;52418;53.134;8.236;2023-02-28T04:55:21;1.10;;;1.10;;
10052;SDS011;52418;53.134;8.236;2023-02-28T04:57:46;1.20;;;1.20;;
10052;SDS011;52418;53.134;8.236;2023-02-28T05:00:12;1.10;;;1.10;;
10052;SDS011;52418;53.134;8.236;2023-02-28T05:02:40;1.00;;;1.00;;
10052;SDS011;52418;53.134;8.236;2023-02-28T05:05:05;1.10;;;1.10;;
10052;SDS011;52418;53.134;8.236;2023-02-28T05:07:30;1.00;;;1.00;;
10052;SDS011;52418;53.134;8.236;2023-02-28T05:09:56;1.00;;;1.00;;
10052;SDS011;52418;53.134;8.236;2023-02-28T05:12:21;1.10;;;1.10;;
10052;SDS011;52418;53.134;8.236;2023-02-28T05:14:46;1.03;;;1.03;;
10052;SDS011;52418;53.134;8.236;2023-02-28T05:17:11;1.17;;;1.17;;
10052;SDS011;52418;53.134;8.236;2023-02-28T05:19:37;1.00;;;1.00;;
10052;SDS011;52418;53.134;8.236;2023-02-28T05:22:02;1.10;;;1.10;;
10052;SDS011;52418;53.134;8.236;2023-02-28T05:24:27;1.10;;;1.10;;
10052;SDS011;52418;53.134;8.236;2023-02-28T05:26:53;1.00;;;1.00;;
10052;SDS011;52418;53.134;8.236;2023-02-28T05:29:18;1.10;;;1.10;;
10052;SDS011;52418;53.134;8.236;2023-02-28T05:31:44;1.00;;;1.00;;
10052;SDS011;52418;53.134;8.236;2023-02-28T05:34:09;1.10;;;1.10;;
10052;SDS011;52418;53.134;8.236;2023-02-28T05:36:37;1.20;;;1.20;;
10052;SDS011;52418;53.134;8.236;2023-02-28T05:39:02;1.10;;;1.10;;
10052;SDS011;52418;53.134;8.236;2023-02-28T05:41:28;1.10;;;1.10;;
10052;SDS011;52418;53.134;8.236;2023-02-28T05:43:53;1.00;;;1.00;;
10052;SDS011;52418;53.134;8.236;2023-02-28T05:46:18;1.20;;;1.20;;
10052;SDS011;52418;53.134;8.236;2023-02-28T05:48:45;1.10;;;1.10;;
10052;SDS011;52418;53.134;8.236;2023-02-28T05:51:11;1.20;;;1.20;;
10052;SDS011;52418;53.134;8.236;2023-02-28T05:53:36;1.10;;;1.10;;
10052;SDS011;52418;53.134;8.236;2023-02-28T05:56:02;1.00;;;1.00;;
10052;SDS011;52418;53.134;8.236;2023-02-28T05:58:27;1.10;;;1.10;;
10052;SDS011;52418;53.134;8.236;2023-02-28T06:00:55;1.13;;;1.13;;
10052;SDS011;52418;53.134;8.236;2023-02-28T06:03:20;1.10;;;1.10;;
10052;SDS011;52418;53.134;8.236;2023-02-28T06:05:45;1.10;;;1.10;;
10052;SDS011;52418;53.134;8.236;2023-02-28T06:08:11;1.10;;;1.10;;
10052;SDS011;52418;53.134;8.236;2023-02-28T06:10:36;1.27;;;1.27;;
10052;SDS011;52418;53.134;8.236;2023-02-28T06:13:02;1.10;;;1.10;;
10052;SDS011;52418;53.134;8.236;2023-02-28T06:15:27;1.00;;;1.00;;
10052;SDS011;52418;53.134;8.236;2023-02-28T06:17:52;1.00;;;1.00;;
10052;SDS011;52418;53.134;8.236;2023-02-28T06:20:18;0.90;;;0.90;;
10052;SDS011;52418;53.134;8.236;2023-02-28T06:22:43;1.00;;;1.00;;
10052;SDS011;52418;53.134;8.236;2023-02-28T06:25:08;1.03;;;1.03;;
10052;SDS011;52418;53.134;8.236;2023-02-28T06:27:34;0.93;;;0.93;;
10052;SDS011;52418;53.134;8.236;2023-02-28T06:29:59;1.00;;;1.00;;
10052;SDS011;52418;53.134;8.236;2023-02-28T06:32:24;0.97;;;0.97;;
10052;SDS011;52418;53.134;8.236;2023-02-28T06:34:50;1.10;;;1.10;;
10052;SDS011;52418;53.134;8.236;2023-02-28T06:37:15;1.00;;;1.00;;
10052;SDS011;52418;53.134;8.236;2023-02-28T06:39:40;1.00;;;1.00;;
10052;SDS011;52418;53.134;8.236;2023-02-28T06:42:05;1.00;;;1.00;;
10052;SDS011;52418;53.134;8.236;2023-02-28T06:44:31;1.00;;;1.00;;
10052;SDS011;52418;53.134;8.236;2023-02-28T06:47:04;1.07;;;1.07;;
10052;SDS011;52418;53.134;8.236;2023-02-28T06:49:30;1.03;;;1.03;;
10052;SDS011;52418;53.134;8.236;2023-02-28T06:51:55;1.00;;;1.00;;
10052;SDS011;52418;53.134;8.236;2023-02-28T06:54:20;1.00;;;1.00;;
10052;SDS011;52418;53.134;8.236;2023-02-28T06:56:45;1.00;;;1.00;;
10052;SDS011;52418;53.134;8.236;2023-02-28T06:59:11;1.07;;;1.07;;
10052;SDS011;52418;53.134;8.236;2023-02-28T07:01:37;1.10;;;1.10;;
10052;SDS011;52418;53.134;8.236;2023-02-28T07:04:02;1.07;;;1.07;;
10052;SDS011;52418;53.134;8.236;2023-02-28T07:06:27;0.90;;;0.90;;
10052;SDS011;52418;53.134;8.236;2023-02-28T07:08:53;1.00;;;1.00;;
10052;SDS011;52418;53.134;8.236;2023-02-28T07:11:19;1.10;;;1.10;;
10052;SDS011;52418;53.134;8.236;2023-02-28T07:13:44;1.00;;;1.00;;
10052;SDS011;52418;53.134;8.236;2023-02-28T07:16:10;0.90;;;0.90;;
10052;SDS011;52418;53.134;8.236;2023-02-28T07:18:36;1.10;;;1.10;;
10052;SDS011;52418;53.134;8.236;2023-02-28T07:21:05;1.10;;;1.10;;
10052;SDS011;52418;53.134;8.236;2023-02-28T07:23:31;1.20;;;1.20;;
10052;SDS011;52418;53.134;8.236;2023-02-28T07:25:57;1.10;;;1.10;;
10052;SDS011;52418;53.134;8.236;2023-02-28T07:28:22;1.10;;;1.10;;
10052;SDS011;52418;53.134;8.236;2023-02-28T07:30:47;1.10;;;1.10;;
10052;SDS011;52418;53.134;8.236;2023-02-28T07:33:13;1.20;;;1.20;;
10052;SDS011;52418;53.134;8.236;2023-02-28T07:35:38;1.10;;;1.10;;
10052;SDS011;52418;53.134;8.236;2023-02-28T07:38:03;1.10;;;1.10;;
10052;SDS011;52418;53.134;8.236;2023-02-28T07:40:28;1.10;;;1.10;;
10052;SDS011;52418;53.134;8.236;2023-02-28T07:42:53;1.00;;;1.00;;
10052;SDS011;52418;53.134;8.236;2023-02-28T07:45:19;1.10;;;1.10;;
10052;SDS011;52418;53.134;8.236;2023-02-28T07:47:44;1.10;;;1.10;;
10052;SDS011;52418;53.134;8.236;2023-02-28T07:50:10;1.10;;;1.10;;
10052;SDS011;52418;53.134;8.236;2023-02-28T07:52:36;1.00;;;1.00;;
10052;SDS011;52418;53.134;8.236;2023-02-28T07:55:01;1.20;;;1.20;;
10052;SDS011;52418;53.134;8.236;2023-02-28T07:57:26;1.13;;;1.13;;
10052;SDS011;52418;53.134;8.236;2023-02-28T07:59:51;1.10;;;1.10;;
10052;SDS011;52418;53.134;8.236;2023-02-28T08:02:17;1.10;;;1.10;;
10052;SDS011;52418;53.134;8.236;2023-02-28T08:04:43;1.13;;;1.13;;
10052;SDS011;52418;53.134;8.236;2023-02-28T08:07:08;1.10;;;1.10;;
10052;SDS011;52418;53.134;8.236;2023-02-28T08:09:37;1.20;;;1.20;;
10052;SDS011;52418;53.134;8.236;2023-02-28T08:12:03;1.20;;;1.20;;
10052;SDS011;52418;53.134;8.236;2023-02-28T08:14:28;1.17;;;1.17;;
10052;SDS011;52418;53.134;8.236;2023-02-28T08:16:53;1.10;;;1.10;;
10052;SDS011;52418;53.134;8.236;2023-02-28T08:19:19;1.10;;;1.10;;
10052;SDS011;52418;53.134;8.236;2023-02-28T08:21:44;1.10;;;1.10;;
10052;SDS011;52418;53.134;8.236;2023-02-28T08:24:09;1.13;;;1.13;;
10052;SDS011;52418;53.134;8.236;2023-02-28T08:26:34;1.10;;;1.10;;
10052;SDS011;52418;53.134;8.236;2023-02-28T08:29:00;1.30;;;1.30;;
10052;SDS011;52418;53.134;8.236;2023-02-28T08:31:25;1.20;;;1.20;;
10052;SDS011;52418;53.134;8.236;2023-02-28T08:33:50;1.10;;;1.10;;
10052;SDS011;52418;53.134;8.236;2023-02-28T08:36:17;1.10;;;1.10;;
10052;SDS011;52418;53.134;8.236;2023-02-28T08:38:42;1.10;;;1.10;;
10052;SDS011;52418;53.134;8.236;2023-02-28T08:41:08;1.17;;;1.17;;
10052;SDS011;52418;53.134;8.236;2023-02-28T08:43:34;1.10;;;1.10;;
10052;SDS011;52418;53.134;8.236;2023-02-28T08:46:00;1.20;;;1.20;;
10052;SDS011;52418;53.134;8.236;2023-02-28T08:48:26;1.00;;;1.00;;
10052;SDS011;52418;53.134;8.236;2023-02-28T08:50:58;1.30;;;1.30;;
10052;SDS011;52418;53.134;8.236;2023-02-28T08:53:24;1.20;;;1.20;;
10052;SDS011;52418;53.134;8.236;2023-02-28T08:55:56;1.20;;;1.20;;
10052;SDS011;52418;53.134;8.236;2023-02-28T08:58:22;1.20;;;1.20;;
10052;SDS011;52418;53.134;8.236;2023-02-28T09:00:47;1.20;;;1.20;;
10052;SDS011;52418;53.134;8.236;2023-02-28T09:03:12;1.20;;;1.20;;
10052;SDS011;52418;53.134;8.236;2023-02-28T09:05:37;1.15;;;1.15;;
10052;SDS011;52418;53.134;8.236;2023-02-28T09:08:02;1.30;;;1.30;;
10052;SDS011;52418;53.134;8.236;2023-02-28T09:10:27;1.23;;;1.23;;
10052;SDS011;52418;53.134;8.236;2023-02-28T09:12:53;1.33;;;1.30;;
10052;SDS011;52418;53.134;8.236;2023-02-28T09:15:18;1.20;;;1.20;;
10052;SDS011;52418;53.134;8.236;2023-02-28T09:17:43;1.20;;;1.20;;
10052;SDS011;52418;53.134;8.236;2023-02-28T09:20:08;1.30;;;1.30;;
10052;SDS011;52418;53.134;8.236;2023-02-28T09:22:34;1.30;;;1.30;;
10052;SDS011;52418;53.134;8.236;2023-02-28T09:24:59;1.20;;;1.20;;
10052;SDS011;52418;53.134;8.236;2023-02-28T09:27:24;1.20;;;1.20;;
10052;SDS011;52418;53.134;8.236;2023-02-28T09:29:49;1.30;;;1.30;;
10052;SDS011;52418;53.134;8.236;2023-02-28T09:32:14;1.27;;;1.27;;
10052;SDS011;52418;53.134;8.236;2023-02-28T09:34:40;1.50;;;1.40;;
10052;SDS011;52418;53.134;8.236;2023-02-28T09:37:05;1.30;;;1.30;;
10052;SDS011;52418;53.134;8.236;2023-02-28T09:39:31;1.50;;;1.40;;
10052;SDS011;52418;53.134;8.236;2023-02-28T09:41:57;1.20;;;1.20;;
10052;SDS011;52418;53.134;8.236;2023-02-28T09:44:26;1.50;;;1.40;;
10052;SDS011;52418;53.134;8.236;2023-02-28T09:46:55;1.30;;;1.30;;
10052;SDS011;52418;53.134;8.236;2023-02-28T09:49:27;1.30;;;1.30;;
10052;SDS011;52418;53.134;8.236;2023-02-28T09:52:09;1.20;;;1.20;;
10052;SDS011;52418;53.134;8.236;2023-02-28T09:54:35;1.20;;;1.20;;
10052;SDS011;52418;53.134;8.236;2023-02-28T09:59:49;1.30;;;1.30;;
10052;SDS011;52418;53.134;8.236;2023-02-28T10:05:02;1.20;;;1.20;;
10052;SDS011;52418;53.134;8.236;2023-02-28T10:09:57;1.38;;;1.30;;
10052;SDS011;52418;53.134;8.236;2023-02-28T10:12:23;1.27;;;1.27;;
10052;SDS011;52418;53.134;8.236;2023-02-28T10:14:49;1.50;;;1.40;;
10052;SDS011;52418;53.134;8.236;2023-02-28T10:17:19;1.30;;;1.30;;
10052;SDS011;52418;53.134;8.236;2023-02-28T10:22:25;1.50;;;1.40;;
10052;SDS011;52418;53.134;8.236;2023-02-28T10:24:53;1.37;;;1.37;;
10052;SDS011;52418;53.134;8.236;2023-02-28T10:27:25;1.33;;;1.33;;
10052;SDS011;52418;53.134;8.236;2023-02-28T10:29:53;1.30;;;1.30;;
10052;SDS011;52418;53.134;8.236;2023-02-28T10:32:20;1.50;;;1.40;;
10052;SDS011;52418;53.134;8.236;2023-02-28T10:34:50;1.27;;;1.27;;
10052;SDS011;52418;53.134;8.236;2023-02-28T10:37:16;1.30;;;1.30;;
10052;SDS011;52418;53.134;8.236;2023-02-28T10:39:42;1.30;;;1.30;;
10052;SDS011;52418;53.134;8.236;2023-02-28T10:42:21;1.60;;;1.50;;
10052;SDS011;52418;53.134;8.236;2023-02-28T10:44:47;1.30;;;1.30;;
10052;SDS011;52418;53.134;8.236;2023-02-28T10:47:16;1.50;;;1.40;;
10052;SDS011;52418;53.134;8.236;2023-02-28T10:49:46;1.50;;;1.40;;
10052;SDS011;52418;53.134;8.236;2023-02-28T10:52:11;1.30;;;1.30;;
10052;SDS011;52418;53.134;8.236;2023-02-28T10:54:36;1.48;;;1.38;;
10052;SDS011;52418;53.134;8.236;2023-02-28T10:59:31;1.30;;;1.30;;
10052;SDS011;52418;53.134;8.236;2023-02-28T11:01:57;1.30;;;1.30;;
10052;SDS011;52418;53.134;8.236;2023-02-28T11:06:47;1.50;;;1.40;;
10052;SDS011;52418;53.134;8.236;2023-02-28T11:09:22;1.30;;;1.30;;
10052;SDS011;52418;53.134;8.236;2023-02-28T11:11:49;1.50;;;1.40;;
10052;SDS011;52418;53.134;8.236;2023-02-28T11:14:17;1.30;;;1.30;;
10052;SDS011;52418;53.134;8.236;2023-02-28T11:16:43;1.47;;;1.37;;
10052;SDS011;52418;53.134;8.236;2023-02-28T11:19:15;1.50;;;1.40;;
10052;SDS011;52418;53.134;8.236;2023-02-28T11:21:45;1.50;;;1.40;;
10052;SDS011;52418;53.134;8.236;2023-02-28T11:24:24;1.50;;;1.40;;
10052;SDS011;52418;53.134;8.236;2023-02-28T11:26:51;1.30;;;1.30;;
10052;SDS011;52418;53.134;8.236;2023-02-28T11:34:28;1.60;;;1.50;;
10052;SDS011;52418;53.134;8.236;2023-02-28T11:36:54;1.20;;;1.20;;
10052;SDS011;52418;53.134;8.236;2023-02-28T11:39:19;1.20;;;1.20;;
10052;SDS011;52418;53.134;8.236;2023-02-28T11:44:17;1.30;;;1.30;;
10052;SDS011;52418;53.134;8.236;2023-02-28T11:46:51;1.60;;;1.50;;
10052;SDS011;52418;53.134;8.236;2023-02-28T11:52:09;1.30;;;1.30;;
10052;SDS011;52418;53.134;8.236;2023-02-28T11:54:49;1.20;;;1.20;;
10052;SDS011;52418;53.134;8.236;2023-02-28T11:57:27;1.43;;;1.40;;
10052;SDS011;52418;53.134;8.236;2023-02-28T12:07:42;1.20;;;1.20;;
10052;SDS011;52418;53.134;8.236;2023-02-28T12:10:21;1.30;;;1.30;;
10052;SDS011;52418;53.134;8.236;2023-02-28T12:12:57;1.37;;;1.37;;
10052;SDS011;52418;53.134;8.236;2023-02-28T12:20:24;1.30;;;1.30;;
10052;SDS011;52418;53.134;8.236;2023-02-28T12:27:45;1.40;;;1.40;;
10052;SDS011;52418;53.134;8.236;2023-02-28T12:30:16;1.20;;;1.20;;
10052;SDS011;52418;53.134;8.236;2023-02-28T12:32:55;1.20;;;1.20;;
10052;SDS011;52418;53.134;8.236;2023-02-28T12:35:23;1.20;;;1.20;;
10052;SDS011;52418;53.134;8.236;2023-02-28T12:37:51;1.10;;;1.10;;
10052;SDS011;52418;53.134;8.236;2023-02-28T12:40:20;1.20;;;1.20;;
10052;SDS011;52418;53.134;8.236;2023-02-28T12:42:47;1.20;;;1.20;;
10052;SDS011;52418;53.134;8.236;2023-02-28T12:45:18;1.30;;;1.30;;
10052;SDS011;52418;53.134;8.236;2023-02-28T12:47:44;1.23;;;1.23;;
10052;SDS011;52418;53.134;8.236;2023-02-28T12:50:11;1.20;;;1.20;;
10052;SDS011;52418;53.134;8.236;2023-02-28T12:52:40;1.20;;;1.20;;
10052;SDS011;52418;53.134;8.236;2023-02-28T12:55:10;1.30;;;1.30;;
10052;SDS011;52418;53.134;8.236;2023-02-28T13:02:59;1.10;;;1.10;;
10052;SDS011;52418;53.134;8.236;2023-02-28T13:11:27;1.20;;;1.20;;
10052;SDS011;52418;53.134;8.236;2023-02-28T13:13:57;1.20;;;1.20;;
10052;SDS011;52418;53.134;8.236;2023-02-28T13:16:23;1.20;;;1.20;;
10052;SDS011;52418;53.134;8.236;2023-02-28T13:18:48;1.13;;;1.13;;
10052;SDS011;52418;53.134;8.236;2023-02-28T13:21:24;1.23;;;1.23;;
10052;SDS011;52418;53.134;8.236;2023-02-28T13:26:32;1.30;;;1.30;;
10052;SDS011;52418;53.134;8.236;2023-02-28T13:31:39;1.20;;;1.20;;
10052;SDS011;52418;53.134;8.236;2023-02-28T13:34:18;1.20;;;1.20;;
10052;SDS011;52418;53.134;8.236;2023-02-28T13:36:43;1.20;;;1.20;;
10052;SDS011;52418;53.134;8.236;2023-02-28T13:47:29;1.20;;;1.20;;
10052;SDS011;52418;53.134;8.236;2023-02-28T13:50:13;1.13;;;1.13;;
10052;SDS011;52418;53.134;8.236;2023-02-28T13:52:43;1.10;;;1.10;;
10052;SDS011;52418;53.134;8.236;2023-02-28T14:03:33;1.20;;;1.20;;
10052;SDS011;52418;53.134;8.236;2023-02-28T14:08:42;1.13;;;1.13;;
10052;SDS011;52418;53.134;8.236;2023-02-28T14:11:22;1.20;;;1.20;;
10052;SDS011;52418;53.134;8.236;2023-02-28T14:13:50;1.30;;;1.30;;
10052;SDS011;52418;53.134;8.236;2023-02-28T14:16:25;1.20;;;1.20;;
10052;SDS011;52418;53.134;8.236;2023-02-28T14:19:01;1.20;;;1.20;;
10052;SDS011;52418;53.134;8.236;2023-02-28T14:21:35;1.30;;;1.30;;
10052;SDS011;52418;53.134;8.236;2023-02-28T14:31:37;1.13;;;1.13;;
10052;SDS011;52418;53.134;8.236;2023-02-28T14:36:48;1.17;;;1.17;;
10052;SDS011;52418;53.134;8.236;2023-02-28T14:39:15;1.10;;;1.10;;
10052;SDS011;52418;53.134;8.236;2023-02-28T14:41:42;1.20;;;1.20;;
10052;SDS011;52418;53.134;8.236;2023-02-28T14:44:18;1.20;;;1.20;;
10052;SDS011;52418;53.134;8.236;2023-02-28T14:46:43;1.00;;;1.00;;
10052;SDS011;52418;53.134;8.236;2023-02-28T14:49:12;1.00;;;1.00;;
10052;SDS011;52418;53.134;8.236;2023-02-28T14:51:38;1.10;;;1.10;;
10052;SDS011;52418;53.134;8.236;2023-02-28T14:54:03;1.10;;;1.10;;
10052;SDS011;52418;53.134;8.236;2023-02-28T14:56:34;1.20;;;1.20;;
10052;SDS011;52418;53.134;8.236;2023-02-28T14:59:00;1.10;;;1.10;;
10052;SDS011;52418;53.134;8.236;2023-02-28T15:01:25;1.20;;;1.20;;
10052;SDS011;52418;53.134;8.236;2023-02-28T15:03:59;1.10;;;1.10;;
10052;SDS011;52418;53.134;8.236;2023-02-28T15:06:24;1.20;;;1.20;;
10052;SDS011;52418;53.134;8.236;2023-02-28T15:09:06;1.00;;;1.00;;
10052;SDS011;52418;53.134;8.236;2023-02-28T15:11:32;1.20;;;1.20;;
10052;SDS011;52418;53.134;8.236;2023-02-28T15:13:58;1.10;;;1.10;;
10052;SDS011;52418;53.134;8.236;2023-02-28T15:16:31;1.10;;;1.10;;
10052;SDS011;52418;53.134;8.236;2023-02-28T15:18:58;1.20;;;1.20;;
10052;SDS011;52418;53.134;8.236;2023-02-28T15:21:25;1.10;;;1.10;;
10052;SDS011;52418;53.134;8.236;2023-02-28T15:23:54;1.20;;;1.20;;
10052;SDS011;52418;53.134;8.236;2023-02-28T15:26:22;1.20;;;1.20;;
10052;SDS011;52418;53.134;8.236;2023-02-28T15:28:51;1.00;;;1.00;;
10052;SDS011;52418;53.134;8.236;2023-02-28T15:31:19;1.10;;;1.10;;
10052;SDS011;52418;53.134;8.236;2023-02-28T15:33:52;1.03;;;1.03;;
10052;SDS011;52418;53.134;8.236;2023-02-28T15:36:19;1.17;;;1.17;;
10052;SDS011;52418;53.134;8.236;2023-02-28T15:38:50;1.00;;;1.00;;
10052;SDS011;52418;53.134;8.236;2023-02-28T15:43:49;1.10;;;1.10;;
10052;SDS011;52418;53.134;8.236;2023-02-28T15:46:35;1.00;;;1.00;;
10052;SDS011;52418;53.134;8.236;2023-02-28T15:49:00;1.10;;;1.10;;
10052;SDS011;52418;53.134;8.236;2023-02-28T15:51:33;1.10;;;1.10;;
10052;SDS011;52418;53.134;8.236;2023-02-28T15:54:04;1.10;;;1.10;;
10052;SDS011;52418;53.134;8.236;2023-02-28T15:56:31;1.10;;;1.10;;
10052;SDS011;52418;53.134;8.236;2023-02-28T15:58:57;1.00;;;1.00;;
10052;SDS011;52418;53.134;8.236;2023-02-28T16:03:56;0.97;;;0.97;;
10052;SDS011;52418;53.134;8.236;2023-02-28T16:06:24;0.90;;;0.90;;
10052;SDS011;52418;53.134;8.236;2023-02-28T16:08:51;1.10;;;1.10;;
10052;SDS011;52418;53.134;8.236;2023-02-28T16:11:18;1.10;;;1.10;;
10052;SDS011;52418;53.134;8.236;2023-02-28T16:13:43;1.10;;;1.10;;
10052;SDS011;52418;53.134;8.236;2023-02-28T16:16:14;1.10;;;1.10;;
10052;SDS011;52418;53.134;8.236;2023-02-28T16:18:39;1.00;;;1.00;;
10052;SDS011;52418;53.134;8.236;2023-02-28T16:21:04;1.10;;;1.10;;
10052;SDS011;52418;53.134;8.236;2023-02-28T16:23:30;0.97;;;0.97;;
10052;SDS011;52418;53.134;8.236;2023-02-28T16:25:55;0.97;;;0.97;;
10052;SDS011;52418;53.134;8.236;2023-02-28T16:28:22;1.07;;;1.07;;
10052;SDS011;52418;53.134;8.236;2023-02-28T16:30:51;1.00;;;1.00;;
10052;SDS011;52418;53.134;8.236;2023-02-28T16:33:16;1.00;;;1.00;;
10052;SDS011;52418;53.134;8.236;2023-02-28T16:35:41;1.07;;;1.07;;
10052;SDS011;52418;53.134;8.236;2023-02-28T16:38:07;1.00;;;1.00;;
10052;SDS011;52418;53.134;8.236;2023-02-28T16:40:33;1.00;;;1.00;;
10052;SDS011;52418;53.134;8.236;2023-02-28T16:42:59;1.00;;;1.00;;
10052;SDS011;52418;53.134;8.236;2023-02-28T16:45:26;1.10;;;1.10;;
10052;SDS011;52418;53.134;8.236;2023-02-28T16:47:52;1.10;;;1.10;;
10052;SDS011;52418;53.134;8.236;2023-02-28T16:50:22;1.10;;;1.10;;
10052;SDS011;52418;53.134;8.236;2023-02-28T16:52:58;1.00;;;1.00;;
10052;SDS011;52418;53.134;8.236;2023-02-28T16:55:23;1.10;;;1.10;;
10052;SDS011;52418;53.134;8.236;2023-02-28T16:57:53;1.10;;;1.10;;